createdAt,value
2018-03-14T00:00:13.664Z,11.52
2018-03-14T00:01:14.131Z,11.51
2018-03-14T00:02:14.630Z,11.54
2018-03-14T00:03:15.075Z,11.53
2018-03-14T00:04:15.544Z,11.52
2018-03-14T00:05:16.014Z,11.52
2018-03-14T00:06:16.486Z,11.51
2018-03-14T00:07:16.955Z,11.49
2018-03-14T00:08:17.426Z,11.46
2018-03-14T00:09:17.898Z,11.47
2018-03-14T00:10:18.368Z,11.45
2018-03-14T00:11:18.839Z,11.46
2018-03-14T00:12:19.360Z,11.46
2018-03-14T00:13:19.780Z,11.47
2018-03-14T00:14:20.252Z,11.48
2018-03-14T00:15:20.723Z,11.46
2018-03-14T00:16:21.193Z,11.45
2018-03-14T00:17:21.664Z,11.44
2018-03-14T00:18:22.134Z,11.43
2018-03-14T00:19:22.651Z,11.43
2018-03-14T00:20:23.075Z,11.44
2018-03-14T00:21:23.546Z,11.44
2018-03-14T00:22:24.017Z,11.45
2018-03-14T00:23:24.488Z,11.43
2018-03-14T00:24:24.957Z,11.42
2018-03-14T00:25:25.431Z,11.41
2018-03-14T00:26:25.899Z,11.41
2018-03-14T00:27:26.369Z,11.43
2018-03-14T00:28:26.844Z,11.42
2018-03-14T00:29:27.312Z,11.41
2018-03-14T00:30:27.782Z,11.39
2018-03-14T00:31:28.253Z,11.39
2018-03-14T00:32:28.724Z,11.38
2018-03-14T00:33:29.193Z,11.38
2018-03-14T00:34:29.665Z,11.37
2018-03-14T00:35:30.136Z,11.37
2018-03-14T00:36:30.605Z,11.35
2018-03-14T00:37:31.075Z,11.37
2018-03-14T00:38:31.548Z,11.37
2018-03-14T00:39:32.018Z,11.36
2018-03-14T00:40:32.491Z,11.37
2018-03-14T00:41:32.959Z,11.39
2018-03-14T00:42:33.434Z,11.39
2018-03-14T00:43:33.904Z,11.36
2018-03-14T00:44:34.372Z,11.33
2018-03-14T00:45:34.843Z,11.33
2018-03-14T00:46:35.311Z,11.32
2018-03-14T00:47:35.783Z,11.33
2018-03-14T00:48:36.252Z,11.34
2018-03-14T00:49:36.723Z,11.32
2018-03-14T00:50:37.193Z,11.30
2018-03-14T00:51:37.664Z,11.30
2018-03-14T00:52:38.135Z,11.28
2018-03-14T00:53:38.606Z,11.27
2018-03-14T00:54:39.076Z,11.28
2018-03-14T00:55:39.547Z,11.32
2018-03-14T00:56:40.018Z,11.31
2018-03-14T00:57:40.491Z,11.32
2018-03-14T00:58:40.958Z,11.33
2018-03-14T00:59:41.429Z,11.33
2018-03-14T01:00:41.901Z,11.33
2018-03-14T01:01:42.369Z,11.34
2018-03-14T01:02:42.890Z,11.32
2018-03-14T01:03:43.310Z,11.33
2018-03-14T01:04:43.787Z,11.32
2018-03-14T01:05:44.252Z,11.31
2018-03-14T01:06:44.723Z,11.32
2018-03-14T01:07:45.191Z,11.31
2018-03-14T01:08:45.664Z,11.31
2018-03-14T01:09:46.133Z,11.33
2018-03-14T01:10:46.603Z,11.33
2018-03-14T01:11:47.075Z,11.35
2018-03-14T01:12:47.598Z,11.32
2018-03-14T01:13:48.015Z,11.32
2018-03-14T01:14:48.485Z,11.33
2018-03-14T01:15:48.958Z,11.32
2018-03-14T01:16:49.429Z,11.30
2018-03-14T01:17:49.896Z,11.29
2018-03-14T01:18:50.369Z,11.30
2018-03-14T01:19:50.839Z,11.29
2018-03-14T01:20:51.313Z,11.30
2018-03-14T01:21:51.781Z,11.30
2018-03-14T01:22:52.250Z,11.30
2018-03-14T01:23:52.722Z,11.29
2018-03-14T01:24:53.191Z,11.29
2018-03-14T01:25:53.662Z,11.29
2018-03-14T01:26:54.136Z,11.28
2018-03-14T01:27:54.656Z,11.27
2018-03-14T01:28:55.075Z,11.25
2018-03-14T01:29:55.543Z,11.24
2018-03-14T01:30:56.016Z,11.26
2018-03-14T01:31:56.485Z,11.26
2018-03-14T01:32:56.955Z,11.29
2018-03-14T01:33:57.424Z,11.27
2018-03-14T01:34:57.895Z,11.29
2018-03-14T01:35:58.368Z,11.28
2018-03-14T01:36:58.837Z,11.27
2018-03-14T01:37:59.460Z,11.27
2018-03-14T01:38:59.778Z,11.27
2018-03-14T01:40:00.249Z,11.27
2018-03-14T01:41:00.718Z,11.26
2018-03-14T01:42:01.188Z,11.24
2018-03-14T01:43:01.709Z,11.25
2018-03-14T01:44:02.130Z,11.25
2018-03-14T01:45:02.600Z,11.25
2018-03-14T01:46:03.072Z,11.25
2018-03-14T01:47:03.541Z,11.24
2018-03-14T01:48:04.012Z,11.25
2018-03-14T01:49:04.483Z,11.26
2018-03-14T01:50:04.953Z,11.24
2018-03-14T01:51:05.422Z,11.26
2018-03-14T01:52:05.893Z,11.25
2018-03-14T01:53:06.364Z,11.25
2018-03-14T01:54:06.833Z,11.27
2018-03-14T01:55:07.304Z,11.25
2018-03-14T01:56:07.777Z,11.24
2018-03-14T01:57:08.246Z,11.23
2018-03-14T01:58:08.719Z,11.23
2018-03-14T01:59:09.187Z,11.21
2018-03-14T02:00:09.657Z,11.24
2018-03-14T02:01:10.128Z,11.24
2018-03-14T02:02:10.596Z,11.26
2018-03-14T02:03:11.068Z,11.26
2018-03-14T02:04:11.539Z,11.24
2018-03-14T02:05:12.010Z,11.26
2018-03-14T02:06:12.479Z,11.24
2018-03-14T02:07:12.949Z,11.25
2018-03-14T02:08:13.471Z,11.25
2018-03-14T02:09:13.891Z,11.26
2018-03-14T02:10:14.360Z,11.26
2018-03-14T02:11:14.830Z,11.29
2018-03-14T02:12:15.302Z,11.28
2018-03-14T02:13:15.975Z,11.25
2018-03-14T02:14:16.243Z,11.26
2018-03-14T02:15:16.712Z,11.26
2018-03-14T02:16:17.185Z,11.30
2018-03-14T02:17:17.654Z,11.27
2018-03-14T02:18:18.125Z,11.27
2018-03-14T02:19:18.594Z,11.28
2018-03-14T02:20:19.065Z,11.29
2018-03-14T02:21:19.535Z,11.27
2018-03-14T02:22:20.006Z,11.28
2018-03-14T02:23:20.476Z,11.26
2018-03-14T02:24:20.946Z,11.25
2018-03-14T02:25:21.416Z,11.25
2018-03-14T02:26:21.888Z,11.23
2018-03-14T02:27:22.359Z,11.23
2018-03-14T02:28:22.828Z,11.23
2018-03-14T02:29:23.299Z,11.26
2018-03-14T02:30:23.768Z,11.24
2018-03-14T02:31:24.242Z,11.24
2018-03-14T02:32:24.710Z,11.23
2018-03-14T02:33:25.180Z,11.22
2018-03-14T02:34:25.655Z,11.22
2018-03-14T02:35:26.124Z,11.23
2018-03-14T02:36:26.590Z,11.24
2018-03-14T02:37:27.063Z,11.26
2018-03-14T02:38:27.533Z,11.25
2018-03-14T02:39:28.003Z,11.23
2018-03-14T02:40:28.471Z,11.21
2018-03-14T02:41:28.945Z,11.21
2018-03-14T02:42:29.415Z,11.21
2018-03-14T02:43:29.887Z,11.23
2018-03-14T02:44:30.358Z,11.20
2018-03-14T02:45:30.826Z,11.21
2018-03-14T02:46:31.297Z,11.19
2018-03-14T02:47:31.765Z,11.20
2018-03-14T02:48:32.239Z,11.20
2018-03-14T02:49:32.707Z,11.20
2018-03-14T02:50:33.175Z,11.18
2018-03-14T02:51:33.647Z,11.18
2018-03-14T02:52:34.117Z,11.15
2018-03-14T02:53:34.593Z,11.15
2018-03-14T02:54:35.058Z,11.15
2018-03-14T02:55:35.533Z,11.15
2018-03-14T02:56:36.004Z,11.13
2018-03-14T02:57:36.474Z,11.14
2018-03-14T02:58:36.941Z,11.15
2018-03-14T02:59:37.415Z,11.14
2018-03-14T03:00:37.884Z,11.14
2018-03-14T03:01:38.355Z,11.12
2018-03-14T03:02:38.826Z,11.11
2018-03-14T03:04:39.766Z,11.11
2018-03-14T03:05:40.235Z,11.12
2018-03-14T03:06:40.708Z,11.13
2018-03-14T03:07:41.177Z,11.15
2018-03-14T03:08:41.646Z,11.15
2018-03-14T03:09:42.119Z,11.15
2018-03-14T03:10:42.592Z,11.14
2018-03-14T03:11:43.058Z,11.13
2018-03-14T03:13:44.000Z,11.09
2018-03-14T03:14:44.465Z,11.09
2018-03-14T03:15:44.938Z,11.12
2018-03-14T03:17:45.880Z,11.11
2018-03-14T03:18:46.350Z,11.08
2018-03-14T03:20:47.289Z,11.08
2018-03-14T03:21:47.756Z,11.09
2018-03-14T03:22:48.229Z,11.08
2018-03-14T03:23:48.700Z,11.08
2018-03-14T03:24:49.169Z,11.10
2018-03-14T03:25:49.640Z,11.09
2018-03-14T03:26:50.111Z,11.07
2018-03-14T03:27:50.580Z,11.06
2018-03-14T03:28:51.099Z,11.05
2018-03-14T03:29:51.521Z,11.05
2018-03-14T03:30:51.993Z,11.07
2018-03-14T03:31:52.461Z,11.06
2018-03-14T03:32:52.932Z,11.06
2018-03-14T03:33:53.408Z,11.06
2018-03-14T03:34:53.870Z,11.05
2018-03-14T03:35:54.344Z,11.08
2018-03-14T03:36:54.812Z,11.05
2018-03-14T03:37:55.282Z,11.03
2018-03-14T03:38:55.746Z,11.05
2018-03-14T03:39:56.221Z,11.03
2018-03-14T03:41:57.163Z,11.00
2018-03-14T03:42:57.632Z,11.01
2018-03-14T03:43:58.154Z,11.01
2018-03-14T03:44:58.566Z,10.99
2018-03-14T03:46:59.511Z,11.00
2018-03-14T03:47:59.983Z,11.01
2018-03-14T03:49:00.448Z,11.00
2018-03-14T03:50:00.927Z,11.00
2018-03-14T03:51:01.393Z,10.99
2018-03-14T03:52:01.900Z,10.99
2018-03-14T03:53:02.334Z,10.99
2018-03-14T03:54:02.806Z,10.97
2018-03-14T03:55:03.266Z,10.98
2018-03-14T03:56:03.745Z,10.98
2018-03-14T03:57:04.220Z,10.97
2018-03-14T03:58:04.687Z,11.01
2018-03-14T03:59:05.149Z,11.00
2018-03-14T04:00:05.623Z,11.00
2018-03-14T04:01:06.093Z,10.99
2018-03-14T04:02:06.564Z,11.00
2018-03-14T04:04:07.658Z,11.00
2018-03-14T04:05:07.968Z,10.98
2018-03-14T04:06:08.443Z,10.97
2018-03-14T04:07:08.913Z,10.97
2018-03-14T04:08:09.384Z,10.96
2018-03-14T04:09:09.850Z,10.97
2018-03-14T04:10:10.325Z,10.97
2018-03-14T04:11:10.792Z,10.97
2018-03-14T04:12:11.263Z,10.96
2018-03-14T04:13:11.735Z,10.97
2018-03-14T04:14:12.406Z,10.96
2018-03-14T04:15:12.676Z,10.97
2018-03-14T04:16:13.139Z,10.99
2018-03-14T04:17:13.613Z,10.97
2018-03-14T04:18:14.084Z,10.94
2018-03-14T04:19:14.557Z,10.93
2018-03-14T04:20:15.024Z,10.93
2018-03-14T04:21:15.492Z,10.94
2018-03-14T04:22:15.959Z,10.94
2018-03-14T04:23:16.432Z,10.94
2018-03-14T04:24:16.902Z,10.94
2018-03-14T04:25:17.374Z,10.92
2018-03-14T04:26:17.839Z,10.92
2018-03-14T04:27:18.310Z,10.91
2018-03-14T04:28:18.782Z,10.90
2018-03-14T04:29:19.253Z,10.90
2018-03-14T04:30:19.723Z,10.88
2018-03-14T04:31:20.191Z,10.88
2018-03-14T04:32:20.662Z,10.87
2018-03-14T04:33:21.133Z,10.88
2018-03-14T04:34:21.604Z,10.88
2018-03-14T04:35:22.067Z,10.88
2018-03-14T04:36:22.542Z,10.85
2018-03-14T04:37:23.020Z,10.86
2018-03-14T04:38:23.477Z,10.84
2018-03-14T04:39:23.954Z,10.83
2018-03-14T04:40:24.421Z,10.84
2018-03-14T04:41:24.891Z,10.84
2018-03-14T04:43:25.826Z,10.83
2018-03-14T04:44:26.352Z,10.83
2018-03-14T04:45:26.770Z,10.81
2018-03-14T04:46:27.237Z,10.79
2018-03-14T04:47:27.710Z,10.78
2018-03-14T04:48:28.182Z,10.79
2018-03-14T04:49:28.651Z,10.80
2018-03-14T04:51:29.585Z,10.79
2018-03-14T04:53:30.531Z,10.78
2018-03-14T04:54:31.001Z,10.77
2018-03-14T04:55:31.465Z,10.78
2018-03-14T04:56:31.941Z,10.78
2018-03-14T04:57:32.410Z,10.77
2018-03-14T04:58:32.876Z,10.77
2018-03-14T04:59:33.348Z,10.76
2018-03-14T05:00:33.820Z,10.76
2018-03-14T05:01:34.290Z,10.75
2018-03-14T05:02:34.755Z,10.74
2018-03-14T05:03:35.233Z,10.72
2018-03-14T05:04:35.749Z,10.75
2018-03-14T05:05:36.169Z,10.75
2018-03-14T05:06:36.640Z,10.72
2018-03-14T05:07:37.108Z,10.75
2018-03-14T05:08:37.579Z,10.76
2018-03-14T05:09:38.049Z,10.73
2018-03-14T05:10:38.517Z,10.73
2018-03-14T05:11:38.989Z,10.74
2018-03-14T05:12:39.456Z,10.73
2018-03-14T05:13:39.928Z,10.73
2018-03-14T05:14:40.397Z,10.73
2018-03-14T05:15:40.867Z,10.71
2018-03-14T05:16:41.337Z,10.72
2018-03-14T05:17:41.806Z,10.71
2018-03-14T05:18:42.270Z,10.69
2018-03-14T05:20:43.215Z,10.69
2018-03-14T05:21:43.685Z,10.70
2018-03-14T05:22:44.158Z,10.68
2018-03-14T05:23:44.625Z,10.68
2018-03-14T05:24:45.097Z,10.66
2018-03-14T05:25:45.564Z,10.65
2018-03-14T05:26:46.046Z,10.66
2018-03-14T05:27:46.503Z,10.66
2018-03-14T05:28:46.972Z,10.65
2018-03-14T05:29:47.443Z,10.64
2018-03-14T05:30:59.700Z,10.64
2018-03-14T05:31:48.381Z,10.65
2018-03-14T05:32:48.847Z,10.65
2018-03-14T05:34:49.791Z,10.63
2018-03-14T05:36:50.730Z,10.61
2018-03-14T05:38:51.671Z,10.61
2018-03-14T05:39:52.135Z,10.59
2018-03-14T05:40:52.658Z,10.57
2018-03-14T05:41:53.082Z,10.57
2018-03-14T05:42:53.549Z,10.55
2018-03-14T05:43:54.017Z,10.57
2018-03-14T05:44:54.487Z,10.59
2018-03-14T05:45:54.951Z,10.58
2018-03-14T05:46:55.425Z,10.58
2018-03-14T05:47:55.890Z,10.59
2018-03-14T05:49:56.835Z,10.57
2018-03-14T05:51:08.738Z,10.55
2018-03-14T05:51:57.769Z,10.54
2018-03-14T05:52:58.245Z,10.53
2018-03-14T05:53:58.715Z,10.52
2018-03-14T05:54:59.182Z,10.53
2018-03-14T05:55:59.855Z,10.53
2018-03-14T05:57:00.123Z,10.52
2018-03-14T05:59:01.062Z,10.54
2018-03-14T06:00:01.530Z,10.52
2018-03-14T06:01:13.738Z,10.53
2018-03-14T06:02:02.471Z,10.53
2018-03-14T06:03:02.941Z,10.52
2018-03-14T06:04:03.409Z,10.51
2018-03-14T06:05:03.878Z,10.50
2018-03-14T06:06:04.398Z,10.52
2018-03-14T06:07:04.818Z,10.51
2018-03-14T06:08:05.287Z,10.52
2018-03-14T06:10:06.223Z,10.51
2018-03-14T06:11:06.696Z,10.50
2018-03-14T06:12:07.215Z,10.49
2018-03-14T06:13:07.635Z,10.51
2018-03-14T06:14:08.104Z,10.49
2018-03-14T06:15:08.574Z,10.50
2018-03-14T06:16:09.042Z,10.50
2018-03-14T06:18:09.981Z,10.51
2018-03-14T06:20:10.914Z,10.52
2018-03-14T06:21:11.390Z,10.52
2018-03-14T06:22:11.863Z,10.51
2018-03-14T06:23:12.330Z,10.52
2018-03-14T06:24:12.799Z,10.51
2018-03-14T06:25:13.268Z,10.51
2018-03-14T06:26:13.735Z,10.51
2018-03-14T06:27:14.207Z,10.53
2018-03-14T06:28:14.675Z,10.54
2018-03-14T06:29:15.145Z,10.53
2018-03-14T06:30:15.614Z,10.54
2018-03-14T06:31:27.771Z,10.51
2018-03-14T06:32:16.553Z,10.51
2018-03-14T06:33:17.022Z,10.53
2018-03-14T06:34:17.492Z,10.52
2018-03-14T06:35:17.962Z,10.55
2018-03-14T06:36:30.180Z,10.54
2018-03-14T06:37:18.900Z,10.55
2018-03-14T06:38:19.366Z,10.57
2018-03-14T06:39:19.840Z,10.57
2018-03-14T06:40:20.307Z,10.58
2018-03-14T06:41:20.830Z,10.59
2018-03-14T06:42:21.248Z,10.59
2018-03-14T06:43:21.718Z,10.61
2018-03-14T06:44:22.187Z,10.63
2018-03-14T06:45:22.658Z,10.64
2018-03-14T06:46:23.121Z,10.65
2018-03-14T06:47:23.841Z,10.67
2018-03-14T06:48:24.064Z,10.67
2018-03-14T06:49:24.534Z,10.69
2018-03-14T06:50:25.002Z,10.71
2018-03-14T06:51:36.750Z,10.69
2018-03-14T06:52:25.941Z,10.69
2018-03-14T06:53:26.406Z,10.69
2018-03-14T06:54:26.884Z,10.71
2018-03-14T06:55:27.352Z,10.69
2018-03-14T06:56:27.820Z,10.71
2018-03-14T06:57:28.290Z,10.72
2018-03-14T06:58:28.759Z,10.70
2018-03-14T06:59:29.229Z,10.71
2018-03-14T07:00:29.700Z,10.72
2018-03-14T07:01:30.167Z,10.72
2018-03-14T07:02:30.638Z,10.72
2018-03-14T07:03:31.107Z,10.73
2018-03-14T07:04:31.577Z,10.74
2018-03-14T07:05:32.048Z,10.76
2018-03-14T07:06:32.520Z,10.77
2018-03-14T07:07:32.984Z,10.77
2018-03-14T07:08:33.454Z,10.79
2018-03-14T07:09:33.926Z,10.80
2018-03-14T07:10:34.395Z,10.80
2018-03-14T07:11:46.806Z,10.82
2018-03-14T07:13:35.803Z,10.87
2018-03-14T07:14:36.280Z,10.89
2018-03-14T07:15:36.744Z,10.89
2018-03-14T07:16:37.212Z,10.90
2018-03-14T07:17:37.689Z,10.90
2018-03-14T07:18:38.152Z,10.90
2018-03-14T07:19:38.618Z,10.90
2018-03-14T07:20:39.091Z,10.91
2018-03-14T07:22:40.034Z,10.91
2018-03-14T07:23:40.501Z,10.92
2018-03-14T07:24:40.971Z,10.92
2018-03-14T07:25:41.441Z,10.92
2018-03-14T07:26:41.909Z,10.93
2018-03-14T07:27:53.816Z,10.94
2018-03-14T07:28:42.844Z,10.94
2018-03-14T07:29:43.320Z,10.93
2018-03-14T07:30:43.788Z,10.96
2018-03-14T07:31:44.261Z,10.96
2018-03-14T07:32:44.751Z,10.99
2018-03-14T07:33:45.200Z,11.00
2018-03-14T07:34:45.700Z,11.02
2018-03-14T07:35:46.139Z,11.04
2018-03-14T07:36:46.608Z,11.07
2018-03-14T07:37:47.130Z,11.08
2018-03-14T07:38:47.548Z,11.09
2018-03-14T07:39:48.014Z,11.12
2018-03-14T07:41:48.958Z,11.18
2018-03-14T07:43:49.896Z,11.22
2018-03-14T07:45:50.838Z,11.29
2018-03-14T07:46:51.301Z,11.34
2018-03-14T07:47:51.829Z,11.38
2018-03-14T07:48:52.248Z,11.41
2018-03-14T07:49:52.718Z,11.46
2018-03-14T07:50:53.189Z,11.51
2018-03-14T07:51:53.652Z,11.56
2018-03-14T07:53:54.597Z,11.60
2018-03-14T07:54:55.062Z,11.62
2018-03-14T07:55:55.538Z,11.66
2018-03-14T07:56:56.009Z,11.66
2018-03-14T07:57:56.624Z,11.67
2018-03-14T07:58:56.970Z,11.65
2018-03-14T07:59:57.420Z,11.67
2018-03-14T08:00:57.891Z,11.66
2018-03-14T08:01:58.361Z,11.66
2018-03-14T08:02:58.825Z,11.65
2018-03-14T08:03:59.302Z,11.67
2018-03-14T08:04:59.770Z,11.65
2018-03-14T08:06:00.243Z,11.65
2018-03-14T08:07:00.715Z,11.69
2018-03-14T08:08:12.814Z,11.68
2018-03-14T08:09:01.661Z,11.68
2018-03-14T08:10:02.118Z,11.67
2018-03-14T08:11:02.594Z,11.68
2018-03-14T08:12:03.062Z,11.69
2018-03-14T08:13:03.534Z,11.71
2018-03-14T08:14:04.014Z,11.67
2018-03-14T08:15:04.477Z,11.66
2018-03-14T08:16:04.947Z,11.69
2018-03-14T08:17:05.416Z,11.71
2018-03-14T08:18:05.932Z,11.70
2018-03-14T08:19:06.357Z,11.71
2018-03-14T08:20:06.827Z,11.70
2018-03-14T08:21:07.298Z,11.70
2018-03-14T08:22:07.769Z,11.73
2018-03-14T08:23:08.285Z,11.73
2018-03-14T08:24:08.710Z,11.77
2018-03-14T08:25:09.180Z,11.78
2018-03-14T08:26:09.650Z,11.79
2018-03-14T08:27:10.119Z,11.79
2018-03-14T08:28:21.818Z,11.82
2018-03-14T08:29:11.062Z,11.80
2018-03-14T08:30:11.534Z,11.81
2018-03-14T08:31:12.008Z,11.82
2018-03-14T08:32:12.474Z,11.83
2018-03-14T08:33:12.993Z,11.85
2018-03-14T08:34:13.417Z,11.86
2018-03-14T08:35:13.884Z,11.88
2018-03-14T08:36:14.356Z,11.88
2018-03-14T08:37:14.878Z,11.89
2018-03-14T08:38:15.293Z,11.89
2018-03-14T08:39:15.767Z,11.89
2018-03-14T08:40:16.240Z,11.89
2018-03-14T08:42:17.179Z,11.92
2018-03-14T08:43:17.652Z,11.90
2018-03-14T08:44:18.120Z,11.90
2018-03-14T08:45:18.592Z,11.92
2018-03-14T08:46:19.062Z,11.93
2018-03-14T08:47:19.533Z,11.94
2018-03-14T08:48:19.999Z,11.94
2018-03-14T08:49:20.474Z,11.95
2018-03-14T08:50:20.979Z,11.97
2018-03-14T08:51:21.418Z,12.00
2018-03-14T08:52:21.887Z,12.02
2018-03-14T08:53:22.357Z,12.04
2018-03-14T08:55:23.302Z,12.06
2018-03-14T08:56:23.771Z,12.08
2018-03-14T08:57:24.241Z,12.11
2018-03-14T08:58:24.709Z,12.12
2018-03-14T08:59:25.182Z,12.14
2018-03-14T09:00:25.654Z,12.14
2018-03-14T09:01:26.125Z,12.16
2018-03-14T09:02:26.595Z,12.19
2018-03-14T09:03:27.116Z,12.23
2018-03-14T09:04:27.534Z,12.24
2018-03-14T09:05:28.007Z,12.27
2018-03-14T09:06:28.479Z,12.30
2018-03-14T09:07:28.950Z,12.34
2018-03-14T09:08:29.418Z,12.40
2018-03-14T09:09:29.892Z,12.47
2018-03-14T09:10:30.363Z,12.54
2018-03-14T09:11:30.836Z,12.62
2018-03-14T09:12:31.306Z,12.70
2018-03-14T09:14:32.250Z,12.86
2018-03-14T09:15:32.723Z,12.93
2018-03-14T09:16:33.192Z,13.00
2018-03-14T09:17:33.663Z,13.06
2018-03-14T09:18:34.131Z,13.11
2018-03-14T09:19:34.607Z,13.14
2018-03-14T09:20:35.079Z,13.17
2018-03-14T09:21:35.550Z,13.19
2018-03-14T09:22:36.023Z,13.21
2018-03-14T09:23:36.543Z,13.23
2018-03-14T09:24:36.966Z,13.26
2018-03-14T09:25:37.436Z,13.29
2018-03-14T09:26:37.901Z,13.31
2018-03-14T09:27:38.379Z,13.35
2018-03-14T09:28:38.903Z,13.37
2018-03-14T09:29:39.323Z,13.41
2018-03-14T09:30:39.790Z,13.41
2018-03-14T09:31:40.268Z,13.45
2018-03-14T09:33:52.948Z,13.49
2018-03-14T09:34:41.680Z,13.55
2018-03-14T09:35:42.156Z,13.57
2018-03-14T09:36:42.627Z,13.61
2018-03-14T09:37:43.100Z,13.66
2018-03-14T09:39:44.098Z,13.76
2018-03-14T09:40:44.516Z,13.79
2018-03-14T09:41:44.988Z,13.83
2018-03-14T09:42:45.460Z,13.87
2018-03-14T09:44:46.403Z,13.91
2018-03-14T09:45:46.876Z,13.92
2018-03-14T09:46:47.349Z,13.93
2018-03-14T09:47:47.817Z,13.97
2018-03-14T09:48:48.295Z,13.97
2018-03-14T09:49:48.766Z,14.00
2018-03-14T09:50:49.235Z,14.02
2018-03-14T09:51:49.713Z,14.06
2018-03-14T09:52:50.184Z,14.10
2018-03-14T09:53:50.706Z,14.10
2018-03-14T09:54:51.132Z,14.11
2018-03-14T09:56:52.075Z,14.14
2018-03-14T09:57:52.544Z,14.16
2018-03-14T09:58:53.021Z,14.21
2018-03-14T09:59:53.493Z,14.22
2018-03-14T10:00:53.970Z,14.23
2018-03-14T10:01:54.438Z,14.26
2018-03-14T10:02:54.913Z,14.29
2018-03-14T10:03:55.439Z,14.31
2018-03-14T10:04:55.859Z,14.32
2018-03-14T10:05:56.331Z,14.34
2018-03-14T10:07:57.286Z,14.37
2018-03-14T10:08:57.750Z,14.39
2018-03-14T10:09:58.223Z,14.38
2018-03-14T10:10:58.695Z,14.39
2018-03-14T10:11:59.171Z,14.42
2018-03-14T10:12:59.642Z,14.45
2018-03-14T10:14:00.119Z,14.46
2018-03-14T10:15:00.584Z,14.46
2018-03-14T10:16:01.064Z,14.47
2018-03-14T10:17:01.536Z,14.48
2018-03-14T10:19:02.483Z,14.52
2018-03-14T10:20:02.956Z,14.53
2018-03-14T10:21:03.427Z,14.53
2018-03-14T10:22:03.894Z,14.52
2018-03-14T10:23:04.375Z,14.54
2018-03-14T10:24:04.899Z,14.55
2018-03-14T10:25:05.325Z,14.56
2018-03-14T10:26:05.789Z,14.58
2018-03-14T10:27:06.268Z,14.58
2018-03-14T10:28:06.741Z,14.59
2018-03-14T10:29:07.270Z,14.61
2018-03-14T10:30:07.690Z,14.63
2018-03-14T10:31:08.160Z,14.65
2018-03-14T10:32:08.636Z,14.67
2018-03-14T10:33:09.103Z,14.68
2018-03-14T10:34:09.633Z,14.70
2018-03-14T10:35:10.055Z,14.74
2018-03-14T10:36:10.529Z,14.74
2018-03-14T10:37:11.003Z,14.73
2018-03-14T10:38:11.473Z,14.74
2018-03-14T10:39:11.950Z,14.75
2018-03-14T10:41:12.898Z,14.73
2018-03-14T10:42:13.371Z,14.72
2018-03-14T10:43:13.845Z,14.75
2018-03-14T10:44:14.321Z,14.80
2018-03-14T10:45:14.794Z,14.84
2018-03-14T10:46:15.267Z,14.85
2018-03-14T10:47:15.740Z,14.85
2018-03-14T10:48:16.208Z,14.87
2018-03-14T10:49:16.743Z,14.90
2018-03-14T10:50:17.162Z,14.91
2018-03-14T10:52:18.111Z,14.95
2018-03-14T10:53:18.590Z,15.00
2018-03-14T10:54:19.109Z,15.01
2018-03-14T10:55:19.532Z,15.07
2018-03-14T10:56:20.008Z,15.11
2018-03-14T10:57:20.475Z,15.14
2018-03-14T10:58:20.955Z,15.17
2018-03-14T10:59:21.481Z,15.20
2018-03-14T11:01:22.372Z,15.27
2018-03-14T11:02:22.855Z,15.30
2018-03-14T11:03:23.326Z,15.32
2018-03-14T11:04:23.852Z,15.33
2018-03-14T11:05:24.276Z,15.35
2018-03-14T11:06:24.749Z,15.40
2018-03-14T11:07:25.225Z,15.43
2018-03-14T11:08:25.697Z,15.47
2018-03-14T11:09:26.219Z,15.47
2018-03-14T11:10:26.648Z,15.48
2018-03-14T11:11:27.120Z,15.48
2018-03-14T11:12:27.596Z,15.49
2018-03-14T11:13:28.072Z,15.51
2018-03-14T11:14:28.546Z,15.49
2018-03-14T11:15:29.021Z,15.48
2018-03-14T11:16:29.494Z,15.46
2018-03-14T11:17:29.964Z,15.49
2018-03-14T11:18:30.444Z,15.47
2018-03-14T11:20:31.395Z,15.46
2018-03-14T11:21:31.888Z,15.47
2018-03-14T11:23:32.819Z,15.51
2018-03-14T11:24:45.030Z,15.51
2018-03-14T11:25:33.815Z,15.53
2018-03-14T11:26:34.244Z,15.55
2018-03-14T11:27:34.717Z,15.55
2018-03-14T11:28:35.186Z,15.54
2018-03-14T11:30:36.137Z,15.48
2018-03-14T11:31:36.617Z,15.41
2018-03-14T11:32:37.094Z,15.32
2018-03-14T11:33:37.566Z,15.20
2018-03-14T11:34:38.036Z,15.08
2018-03-14T11:35:38.567Z,14.94
2018-03-14T11:36:38.991Z,14.80
2018-03-14T11:37:39.465Z,14.65
2018-03-14T11:38:39.939Z,14.49
2018-03-14T11:39:40.414Z,14.32
2018-03-14T11:40:53.081Z,14.15
2018-03-14T11:41:41.362Z,13.97
2018-03-14T11:42:41.833Z,13.79
2018-03-14T11:43:42.301Z,13.61
2018-03-14T11:44:42.832Z,13.44
2018-03-14T11:45:43.255Z,13.27
2018-03-14T11:46:43.725Z,13.12
2018-03-14T11:47:44.200Z,12.98
2018-03-14T11:48:44.673Z,12.85
2018-03-14T11:49:45.146Z,12.74
2018-03-14T11:50:57.050Z,12.65
2018-03-14T11:51:46.083Z,12.58
2018-03-14T11:52:46.559Z,12.53
2018-03-14T11:53:47.031Z,12.50
2018-03-14T11:54:47.503Z,12.49
2018-03-14T11:56:00.115Z,12.50
2018-03-14T11:56:48.446Z,12.53
2018-03-14T11:57:48.917Z,12.56
2018-03-14T11:58:49.388Z,12.62
2018-03-14T11:59:49.856Z,12.70
2018-03-14T12:00:50.332Z,12.76
2018-03-14T12:01:50.802Z,12.84
2018-03-14T12:02:51.270Z,12.94
2018-03-14T12:03:51.744Z,13.02
2018-03-14T12:04:52.212Z,13.11
2018-03-14T12:05:52.679Z,13.20
2018-03-14T12:06:53.154Z,13.29
2018-03-14T12:07:53.620Z,13.37
2018-03-14T12:08:54.098Z,13.46
2018-03-14T12:09:54.568Z,13.54
2018-03-14T12:10:55.038Z,13.63
2018-03-14T12:11:55.515Z,13.71
2018-03-14T12:12:55.981Z,13.79
2018-03-14T12:13:56.454Z,13.86
2018-03-14T12:14:56.918Z,13.94
2018-03-14T12:15:57.396Z,14.03
2018-03-14T12:16:57.870Z,14.11
2018-03-14T12:17:58.340Z,14.19
2018-03-14T12:18:58.811Z,14.29
2018-03-14T12:19:59.278Z,14.36
2018-03-14T12:20:59.761Z,14.43
2018-03-14T12:22:00.227Z,14.49
2018-03-14T12:23:00.699Z,14.58
2018-03-14T12:24:01.169Z,14.67
2018-03-14T12:25:01.644Z,14.75
2018-03-14T12:26:02.162Z,14.82
2018-03-14T12:28:03.060Z,14.97
2018-03-14T12:29:03.534Z,15.04
2018-03-14T12:30:04.003Z,15.12
2018-03-14T12:31:16.112Z,15.19
2018-03-14T12:32:04.954Z,15.27
2018-03-14T12:33:05.428Z,15.33
2018-03-14T12:34:05.902Z,15.39
2018-03-14T12:36:06.846Z,15.46
2018-03-14T12:37:07.320Z,15.49
2018-03-14T12:38:07.792Z,15.53
2018-03-14T12:39:08.266Z,15.56
2018-03-14T12:40:08.739Z,15.62
2018-03-14T12:41:09.207Z,15.66
2018-03-14T12:42:09.746Z,15.68
2018-03-14T12:43:10.162Z,15.72
2018-03-14T12:44:10.636Z,15.73
2018-03-14T12:45:11.107Z,15.76
2018-03-14T12:46:11.635Z,15.79
2018-03-14T12:47:12.059Z,15.81
2018-03-14T12:48:12.534Z,15.84
2018-03-14T12:49:13.007Z,15.85
2018-03-14T12:50:13.481Z,15.88
2018-03-14T12:51:14.009Z,15.91
2018-03-14T12:52:14.470Z,15.94
2018-03-14T12:53:14.904Z,15.94
2018-03-14T12:54:15.381Z,15.96
2018-03-14T12:55:15.856Z,15.98
2018-03-14T12:56:16.367Z,16.01
2018-03-14T12:57:16.820Z,16.05
2018-03-14T12:59:17.753Z,16.10
2018-03-14T13:00:18.228Z,16.12
2018-03-14T13:02:19.183Z,16.11
2018-03-14T13:03:19.655Z,16.07
2018-03-14T13:04:20.131Z,16.02
2018-03-14T13:05:20.604Z,15.93
2018-03-14T13:06:21.125Z,15.84
2018-03-14T13:07:21.549Z,15.74
2018-03-14T13:08:22.028Z,15.61
2018-03-14T13:09:22.499Z,15.48
2018-03-14T13:10:22.979Z,15.32
2018-03-14T13:11:23.448Z,15.17
2018-03-14T13:12:23.927Z,15.03
2018-03-14T13:13:24.401Z,14.88
2018-03-14T13:15:25.349Z,14.57
2018-03-14T13:16:25.870Z,14.42
2018-03-14T13:17:26.301Z,14.25
2018-03-14T13:18:26.772Z,14.10
2018-03-14T13:19:27.245Z,13.93
2018-03-14T13:20:27.717Z,13.78
2018-03-14T13:21:28.186Z,13.62
2018-03-14T13:24:29.610Z,13.23
2018-03-14T13:25:30.097Z,13.14
2018-03-14T13:26:30.606Z,13.06
2018-03-14T13:27:31.026Z,13.00
2018-03-14T13:28:31.495Z,12.95
2018-03-14T13:29:31.968Z,12.95
2018-03-14T13:30:32.440Z,12.97
2018-03-14T13:31:32.907Z,13.03
2018-03-14T13:32:33.384Z,13.09
2018-03-14T13:33:33.856Z,13.15
2018-03-14T13:34:34.327Z,13.23
2018-03-14T13:35:34.796Z,13.29
2018-03-14T13:36:35.318Z,13.37
2018-03-14T13:37:35.739Z,13.44
2018-03-14T13:38:36.211Z,13.51
2018-03-14T13:39:36.681Z,13.61
2018-03-14T13:40:37.153Z,13.71
2018-03-14T13:41:37.674Z,13.81
2018-03-14T13:42:38.095Z,13.90
2018-03-14T13:43:38.567Z,14.01
2018-03-14T13:44:39.039Z,14.11
2018-03-14T13:45:39.510Z,14.21